createdAt,value
2019-01-14T00:01:30.643Z,83.50
2019-01-14T00:04:01.321Z,83.80
2019-01-14T00:06:32.457Z,83.80
2019-01-14T00:09:03.769Z,84.20
2019-01-14T00:11:33.765Z,84.10
2019-01-14T00:14:04.261Z,83.20
2019-01-14T00:16:34.259Z,83.40
2019-01-14T00:19:04.708Z,82.90
2019-01-14T00:21:34.793Z,83.00
2019-01-14T00:24:04.829Z,83.20
2019-01-14T00:26:34.830Z,83.30
2019-01-14T00:29:04.813Z,83.60
2019-01-14T00:31:35.252Z,83.20
2019-01-14T00:34:05.345Z,83.50
2019-01-14T00:36:35.452Z,83.40
2019-01-14T00:39:07.546Z,82.80
2019-01-14T00:41:37.555Z,83.00
2019-01-14T00:44:07.945Z,82.70
2019-01-14T00:46:37.994Z,83.40
2019-01-14T00:49:08.342Z,83.10
2019-01-14T00:51:38.358Z,83.80
2019-01-14T00:54:08.630Z,83.20
2019-01-14T00:56:38.643Z,83.40
2019-01-14T00:59:08.938Z,82.70
2019-01-14T01:01:38.950Z,82.80
2019-01-14T01:04:09.354Z,83.00
2019-01-14T01:06:39.362Z,82.80
2019-01-14T01:09:09.439Z,82.20
2019-01-14T01:11:39.503Z,82.10
2019-01-14T01:14:09.508Z,81.80
2019-01-14T01:16:39.570Z,81.80
2019-01-14T01:19:10.017Z,80.90
2019-01-14T01:21:40.003Z,81.20
2019-01-14T01:24:10.017Z,81.40
2019-01-14T01:26:40.008Z,80.90
2019-01-14T01:29:10.396Z,81.30
2019-01-14T01:31:40.586Z,81.00
2019-01-14T01:34:10.598Z,81.30
2019-01-14T01:36:40.598Z,81.40
2019-01-14T01:39:10.602Z,81.40
2019-01-14T01:41:40.611Z,80.70
2019-01-14T01:44:10.680Z,80.50
2019-01-14T01:46:40.706Z,80.60
2019-01-14T01:49:10.693Z,80.40
2019-01-14T01:51:41.192Z,80.50
2019-01-14T01:54:11.170Z,80.10
2019-01-14T01:56:41.175Z,79.20
2019-01-14T01:59:11.168Z,79.20
2019-01-14T02:01:41.164Z,79.40
2019-01-14T02:04:11.133Z,78.60
2019-01-14T02:06:41.138Z,79.60
2019-01-14T02:09:11.126Z,79.50
2019-01-14T02:11:41.130Z,79.00
2019-01-14T02:14:11.224Z,78.90
2019-01-14T02:16:41.947Z,78.50
2019-01-14T02:19:11.998Z,78.70
2019-01-14T02:21:41.992Z,79.20
2019-01-14T02:24:12.300Z,78.90
2019-01-14T02:26:42.398Z,78.90
2019-01-14T02:29:12.407Z,78.50
2019-01-14T02:31:42.409Z,78.10
2019-01-14T02:34:12.426Z,78.10
2019-01-14T02:36:48.467Z,78.10
2019-01-14T02:39:14.112Z,77.80
2019-01-14T02:41:44.108Z,77.60
2019-01-14T02:44:14.138Z,77.20
2019-01-14T02:46:44.146Z,76.20
2019-01-14T02:49:14.144Z,75.50
2019-01-14T02:51:44.189Z,75.70
2019-01-14T02:54:14.204Z,75.80
2019-01-14T02:56:44.682Z,75.40
2019-01-14T02:59:14.777Z,75.10
2019-01-14T03:01:44.786Z,75.50
2019-01-14T03:04:14.816Z,75.10
2019-01-14T03:06:45.200Z,75.50
2019-01-14T03:09:16.774Z,75.20
2019-01-14T03:11:46.774Z,74.40
2019-01-14T03:14:16.796Z,74.60
2019-01-14T03:16:58.790Z,74.60
2019-01-14T03:19:28.812Z,75.20
2019-01-14T03:21:58.803Z,74.10
2019-01-14T03:24:28.812Z,74.00
2019-01-14T03:26:58.810Z,73.90
2019-01-14T03:29:28.812Z,73.70
2019-01-14T03:31:59.208Z,73.90
2019-01-14T03:34:29.256Z,73.60
2019-01-14T03:37:05.484Z,73.30
2019-01-14T03:39:31.214Z,72.90
2019-01-14T03:42:01.210Z,73.60
2019-01-14T03:44:31.280Z,74.00
2019-01-14T03:47:01.576Z,74.00
2019-01-14T03:49:31.554Z,73.40
2019-01-14T03:52:01.555Z,73.30
2019-01-14T03:54:31.686Z,73.60
2019-01-14T03:57:01.695Z,73.50
2019-01-14T03:59:31.703Z,72.90
2019-01-14T04:02:01.699Z,73.50
2019-01-14T04:04:31.703Z,73.30
2019-01-14T04:07:01.680Z,73.60
2019-01-14T04:09:32.100Z,73.20
2019-01-14T04:12:02.202Z,73.50
2019-01-14T04:14:32.218Z,74.10
2019-01-14T04:17:02.238Z,74.40
2019-01-14T04:19:32.579Z,74.60
2019-01-14T04:22:02.616Z,74.00
2019-01-14T04:24:32.623Z,74.30
2019-01-14T04:27:02.647Z,73.90
2019-01-14T04:29:32.646Z,74.50
2019-01-14T04:32:02.663Z,74.50
2019-01-14T04:34:32.685Z,74.50
2019-01-14T04:37:02.708Z,74.20
2019-01-14T04:39:33.473Z,73.60
2019-01-14T04:42:03.446Z,74.60
2019-01-14T04:44:33.535Z,73.20
2019-01-14T04:47:03.904Z,73.70
2019-01-14T04:49:33.895Z,73.50
2019-01-14T04:52:03.898Z,74.10
2019-01-14T04:54:34.187Z,73.80
2019-01-14T04:57:04.495Z,73.40
2019-01-14T04:59:34.579Z,73.80
2019-01-14T05:02:05.578Z,73.40
2019-01-14T05:04:35.581Z,72.80
2019-01-14T05:07:05.629Z,72.30
2019-01-14T05:09:35.631Z,72.70
2019-01-14T05:12:05.617Z,72.90
2019-01-14T05:14:35.625Z,73.20
2019-01-14T05:17:05.633Z,72.70
2019-01-14T05:19:35.643Z,73.00
2019-01-14T05:22:06.082Z,73.30
2019-01-14T05:24:36.105Z,72.80
2019-01-14T05:27:06.107Z,73.20
2019-01-14T05:29:36.194Z,73.20
2019-01-14T05:32:06.765Z,72.90
2019-01-14T05:34:36.777Z,73.10
2019-01-14T05:37:06.772Z,73.30
2019-01-14T05:39:36.797Z,73.10
2019-01-14T05:42:06.787Z,73.50
2019-01-14T05:44:36.817Z,73.00
2019-01-14T05:47:06.812Z,73.10
2019-01-14T05:49:36.815Z,73.20
2019-01-14T05:52:06.817Z,73.40
2019-01-14T05:54:37.116Z,73.40
2019-01-14T05:57:07.126Z,73.10
2019-01-14T05:59:37.210Z,73.70
2019-01-14T06:02:07.205Z,73.10
2019-01-14T06:04:37.222Z,73.40
2019-01-14T06:07:07.223Z,73.40
2019-01-14T06:09:37.236Z,73.60
2019-01-14T06:12:07.235Z,74.00
2019-01-14T06:14:37.322Z,73.90
2019-01-14T06:17:07.357Z,74.40
2019-01-14T06:19:38.595Z,74.40
2019-01-14T06:22:08.934Z,73.90
2019-01-14T06:24:40.065Z,74.50
2019-01-14T06:27:10.081Z,74.00
2019-01-14T06:29:40.074Z,74.10
2019-01-14T06:32:10.105Z,73.80
2019-01-14T06:34:40.122Z,73.70
2019-01-14T06:37:10.143Z,73.30
2019-01-14T06:39:40.123Z,74.00
2019-01-14T06:42:10.148Z,73.80
2019-01-14T06:44:40.488Z,74.00
2019-01-14T06:47:10.516Z,74.90
2019-01-14T06:49:40.519Z,74.10
2019-01-14T06:52:10.531Z,73.70
2019-01-14T06:54:40.541Z,73.40
2019-01-14T06:57:11.284Z,73.50
2019-01-14T06:59:41.274Z,73.70
2019-01-14T07:02:11.276Z,73.50
2019-01-14T07:04:41.286Z,73.70
2019-01-14T07:07:11.694Z,73.90
2019-01-14T07:09:41.682Z,73.70
2019-01-14T07:12:11.740Z,73.60
2019-01-14T07:14:41.736Z,73.80
2019-01-14T07:17:12.164Z,73.90
2019-01-14T07:19:42.151Z,74.20
2019-01-14T07:22:12.218Z,74.40
2019-01-14T07:24:42.515Z,74.30
2019-01-14T07:27:12.596Z,74.40
2019-01-14T07:29:42.578Z,74.00
2019-01-14T07:32:12.986Z,74.70
2019-01-14T07:34:42.995Z,74.30
2019-01-14T07:37:13.902Z,74.40
2019-01-14T07:39:44.232Z,74.50
2019-01-14T07:42:14.254Z,74.60
2019-01-14T07:44:44.330Z,74.30
2019-01-14T07:47:14.332Z,74.30
2019-01-14T07:49:44.714Z,74.60
2019-01-14T07:52:14.736Z,74.60
2019-01-14T07:54:45.076Z,74.80
2019-01-14T07:57:15.089Z,74.30
2019-01-14T07:59:45.814Z,74.50
2019-01-14T08:02:15.902Z,74.50
2019-01-14T08:04:46.336Z,75.50
2019-01-14T08:07:16.720Z,74.00
2019-01-14T08:09:46.734Z,74.60
2019-01-14T08:12:16.749Z,75.00
2019-01-14T08:14:47.169Z,74.70
2019-01-14T08:17:17.174Z,74.70
2019-01-14T08:19:47.190Z,74.40
2019-01-14T08:22:17.193Z,74.20
2019-01-14T08:24:47.226Z,74.60
2019-01-14T08:27:17.617Z,75.30
2019-01-14T08:29:47.686Z,74.70
2019-01-14T08:32:18.387Z,74.80
2019-01-14T08:34:48.714Z,74.20
2019-01-14T08:37:19.120Z,74.50
2019-01-14T08:39:49.189Z,74.20
2019-01-14T08:42:19.795Z,74.10
2019-01-14T08:44:50.221Z,74.30
2019-01-14T08:47:20.594Z,74.60
2019-01-14T08:49:50.679Z,74.70
2019-01-14T08:52:21.130Z,74.40
2019-01-14T08:54:51.220Z,74.20
2019-01-14T08:57:21.469Z,74.00
2019-01-14T08:59:51.489Z,74.20
2019-01-14T09:02:21.538Z,74.00
2019-01-14T09:04:51.602Z,74.00
2019-01-14T09:07:21.630Z,74.10
2019-01-14T09:09:51.668Z,74.00
2019-01-14T09:12:21.720Z,73.70
2019-01-14T09:14:51.724Z,73.70
2019-01-14T09:17:21.729Z,74.30
2019-01-14T09:19:51.722Z,74.10
2019-01-14T09:22:22.079Z,74.50
2019-01-14T09:24:52.426Z,74.70
2019-01-14T09:27:22.849Z,75.60
2019-01-14T09:29:52.842Z,74.40
2019-01-14T09:32:22.882Z,74.90
2019-01-14T09:34:52.872Z,74.50
2019-01-14T09:37:22.993Z,74.70
2019-01-14T09:39:53.015Z,74.70
2019-01-14T09:42:27.770Z,75.00
2019-01-14T09:44:54.745Z,75.00
2019-01-14T09:47:24.747Z,74.90
2019-01-14T09:49:54.773Z,75.00
2019-01-14T09:52:24.857Z,75.00
2019-01-14T09:54:54.883Z,75.60
2019-01-14T09:57:24.913Z,75.30
2019-01-14T09:59:54.926Z,75.40
2019-01-14T10:02:25.345Z,75.40
2019-01-14T10:04:55.657Z,75.70
2019-01-14T10:07:25.678Z,74.90
2019-01-14T10:09:55.680Z,75.40
2019-01-14T10:12:25.714Z,76.10
2019-01-14T10:14:55.715Z,76.00
2019-01-14T10:17:28.172Z,76.00
2019-01-14T10:19:58.306Z,75.30
2019-01-14T10:22:28.353Z,76.10
2019-01-14T10:24:58.355Z,75.90
2019-01-14T10:27:28.363Z,75.70
2019-01-14T10:29:58.774Z,76.00
2019-01-14T10:32:29.072Z,76.60
2019-01-14T10:34:59.452Z,76.80
2019-01-14T10:37:29.476Z,76.50
2019-01-14T10:39:59.478Z,76.40
2019-01-14T10:42:29.499Z,76.00
2019-01-14T10:44:59.565Z,75.90
2019-01-14T10:47:29.892Z,76.60
2019-01-14T10:49:59.901Z,76.50
2019-01-14T10:52:30.018Z,76.20
2019-01-14T10:55:00.014Z,76.00
2019-01-14T10:57:30.046Z,76.00
2019-01-14T11:00:00.160Z,76.00
2019-01-14T11:02:31.195Z,76.30
2019-01-14T11:05:01.365Z,76.10
2019-01-14T11:07:31.386Z,75.70
2019-01-14T11:10:01.719Z,75.90
2019-01-14T11:12:32.272Z,75.70
2019-01-14T11:15:03.137Z,76.60
2019-01-14T11:17:33.482Z,76.50
2019-01-14T11:20:04.563Z,76.50
2019-01-14T11:22:34.586Z,76.40
2019-01-14T11:25:05.584Z,76.20
2019-01-14T11:27:35.615Z,76.50
2019-01-14T11:30:08.272Z,75.60
2019-01-14T11:32:38.330Z,76.40
2019-01-14T11:35:08.792Z,76.20
2019-01-14T11:37:38.954Z,76.60
2019-01-14T11:40:14.681Z,77.40
2019-01-14T11:42:44.739Z,76.80
2019-01-14T11:45:15.256Z,76.20
2019-01-14T11:47:45.264Z,75.60
2019-01-14T11:50:17.301Z,75.60
2019-01-14T11:52:48.158Z,74.80
2019-01-14T11:55:18.597Z,76.40
2019-01-14T11:57:48.578Z,75.90
2019-01-14T12:00:21.327Z,75.70
2019-01-14T12:02:51.318Z,75.60
2019-01-14T12:05:22.046Z,75.20
2019-01-14T12:07:52.077Z,75.10
2019-01-14T12:10:22.217Z,75.00
2019-01-14T12:12:52.688Z,75.60
2019-01-14T12:15:28.084Z,75.60
2019-01-14T12:17:58.081Z,75.40
2019-01-14T12:20:28.790Z,75.50
2019-01-14T12:22:58.782Z,75.30
2019-01-14T12:25:28.815Z,75.10
2019-01-14T12:27:58.823Z,75.00
2019-01-14T12:30:41.594Z,75.60
2019-01-14T12:33:11.820Z,75.70
2019-01-14T12:35:41.877Z,75.10
2019-01-14T12:38:11.948Z,75.00
2019-01-14T12:40:41.981Z,75.40
2019-01-14T12:43:11.970Z,75.50
2019-01-14T12:45:41.978Z,75.90
2019-01-14T12:48:12.305Z,75.90
2019-01-14T12:50:42.295Z,76.00
2019-01-14T12:53:12.292Z,75.90
2019-01-14T12:55:42.637Z,75.90
2019-01-14T12:58:12.732Z,76.40
2019-01-14T13:00:42.871Z,76.10
2019-01-14T13:03:12.888Z,76.10
2019-01-14T13:05:43.642Z,75.80
2019-01-14T13:08:13.919Z,76.50
2019-01-14T13:10:44.897Z,76.10
2019-01-14T13:13:14.899Z,76.20
2019-01-14T13:15:44.929Z,76.70
2019-01-14T13:18:15.316Z,76.50
2019-01-14T13:20:45.349Z,76.70
2019-01-14T13:23:15.677Z,77.00
2019-01-14T13:25:45.719Z,77.30
2019-01-14T13:28:15.727Z,76.90
2019-01-14T13:30:46.832Z,76.30
2019-01-14T13:33:16.837Z,76.70
2019-01-14T13:35:47.221Z,76.70
2019-01-14T13:38:17.625Z,76.60
2019-01-14T13:40:47.715Z,76.40
2019-01-14T13:43:18.076Z,76.50
2019-01-14T13:45:52.417Z,75.90
2019-01-14T13:48:19.795Z,76.50
2019-01-14T13:50:49.837Z,76.00
2019-01-14T13:53:20.184Z,75.30
2019-01-14T13:55:50.278Z,73.90
2019-01-14T13:58:20.322Z,73.50
2019-01-14T14:00:50.662Z,73.10
2019-01-14T14:03:21.397Z,72.30
2019-01-14T14:05:51.458Z,71.40
2019-01-14T14:08:21.466Z,71.90
2019-01-14T14:10:51.477Z,71.80
2019-01-14T14:13:21.496Z,71.60
2019-01-14T14:15:52.188Z,71.40
2019-01-14T14:18:22.205Z,71.30
2019-01-14T14:20:52.230Z,71.20
2019-01-14T14:23:22.222Z,71.30
2019-01-14T14:25:52.242Z,71.30
2019-01-14T14:28:22.576Z,71.20
2019-01-14T14:30:53.014Z,71.30
2019-01-14T14:33:23.094Z,71.40
2019-01-14T14:35:53.144Z,71.20
2019-01-14T14:38:23.200Z,71.30
2019-01-14T14:40:53.210Z,71.20
2019-01-14T14:43:23.901Z,71.10
2019-01-14T14:45:53.914Z,71.40
2019-01-14T14:48:23.931Z,71.20
2019-01-14T14:50:53.952Z,71.10
2019-01-14T14:53:23.959Z,71.00
2019-01-14T14:55:53.980Z,71.80
2019-01-14T14:58:24.026Z,71.10
2019-01-14T15:00:54.094Z,70.80
2019-01-14T15:03:24.545Z,71.00
2019-01-14T15:05:54.570Z,71.00
2019-01-14T15:08:24.696Z,71.40
2019-01-14T15:10:54.738Z,71.20
2019-01-14T15:13:24.774Z,70.90
2019-01-14T15:15:55.146Z,71.10
2019-01-14T15:18:25.129Z,71.30
2019-01-14T15:20:55.586Z,71.20
2019-01-14T15:23:25.597Z,71.30
2019-01-14T15:25:56.095Z,70.80
2019-01-14T15:28:26.086Z,71.20
2019-01-14T15:30:56.104Z,71.00
2019-01-14T15:33:26.106Z,70.80
2019-01-14T15:35:57.418Z,70.80
2019-01-14T15:38:27.815Z,70.70
2019-01-14T15:40:57.910Z,70.40
2019-01-14T15:43:27.925Z,70.90
2019-01-14T15:45:57.960Z,71.00
2019-01-14T15:48:27.990Z,70.90
2019-01-14T15:50:58.104Z,70.70
2019-01-14T15:53:28.206Z,70.60
2019-01-14T15:55:58.235Z,70.40
2019-01-14T15:58:28.235Z,70.10
2019-01-14T16:00:58.350Z,70.70
2019-01-14T16:03:28.729Z,70.70
2019-01-14T16:05:58.720Z,70.90
2019-01-14T16:08:29.469Z,70.20
2019-01-14T16:10:59.472Z,70.50
2019-01-14T16:13:29.821Z,70.60
2019-01-14T16:15:59.809Z,70.70
2019-01-14T16:18:29.831Z,70.70
2019-01-14T16:20:59.837Z,70.60
2019-01-14T16:23:29.834Z,70.30
2019-01-14T16:25:59.837Z,70.70
2019-01-14T16:28:29.835Z,70.50
2019-01-14T16:30:59.887Z,70.20
2019-01-14T16:33:30.242Z,69.80
2019-01-14T16:36:00.256Z,70.30
2019-01-14T16:38:30.273Z,70.30
2019-01-14T16:41:01.045Z,70.00
2019-01-14T16:43:31.017Z,70.30
2019-01-14T16:46:01.044Z,70.40
2019-01-14T16:48:31.076Z,70.00
2019-01-14T16:51:01.087Z,69.90
2019-01-14T16:53:31.154Z,69.90
2019-01-14T16:56:02.655Z,69.80
2019-01-14T16:58:33.062Z,69.90
2019-01-14T17:01:03.129Z,70.10
2019-01-14T17:03:33.529Z,69.90
2019-01-14T17:06:04.085Z,69.80
2019-01-14T17:08:34.485Z,69.40
2019-01-14T17:11:04.896Z,68.90
2019-01-14T17:13:35.293Z,69.20
2019-01-14T17:16:05.663Z,69.40
2019-01-14T17:18:35.744Z,68.90
2019-01-14T17:21:06.718Z,68.50
2019-01-14T17:23:37.283Z,69.20
2019-01-14T17:26:07.311Z,68.90
2019-01-14T17:28:37.317Z,69.10
2019-01-14T17:31:07.362Z,69.00
2019-01-14T17:33:37.456Z,68.20
2019-01-14T17:36:07.514Z,68.70
2019-01-14T17:38:37.509Z,68.70
2019-01-14T17:41:08.551Z,68.60
2019-01-14T17:43:38.562Z,68.90
2019-01-14T17:46:08.563Z,68.90
2019-01-14T17:48:38.566Z,68.60
2019-01-14T17:51:08.589Z,68.80
2019-01-14T17:53:38.636Z,69.10
2019-01-14T17:56:08.681Z,69.10
2019-01-14T17:58:39.123Z,68.40
2019-01-14T18:01:09.549Z,68.70
2019-01-14T18:03:39.555Z,68.90
2019-01-14T18:06:09.577Z,68.80
2019-01-14T18:08:39.597Z,68.70
2019-01-14T18:11:10.321Z,68.70
2019-01-14T18:13:40.393Z,68.80
2019-01-14T18:16:11.201Z,68.10
2019-01-14T18:18:41.382Z,68.60
2019-01-14T18:21:13.842Z,68.80
2019-01-14T18:23:43.128Z,69.10
2019-01-14T18:26:13.143Z,68.70
2019-01-14T18:28:44.207Z,68.70
2019-01-14T18:31:14.333Z,68.60
2019-01-14T18:33:44.718Z,68.60
2019-01-14T18:36:16.039Z,68.60
2019-01-14T18:38:46.129Z,67.80
2019-01-14T18:41:16.184Z,68.10
2019-01-14T18:43:46.163Z,68.50
2019-01-14T18:46:16.288Z,68.80
2019-01-14T18:48:46.714Z,69.10
2019-01-14T18:51:16.850Z,69.30
2019-01-14T18:53:47.207Z,69.30
2019-01-14T18:56:17.237Z,69.30
2019-01-14T18:58:47.909Z,69.30
2019-01-14T19:01:18.466Z,69.10
2019-01-14T19:03:48.475Z,69.30
2019-01-14T19:06:18.495Z,69.10
2019-01-14T19:08:48.568Z,69.20
2019-01-14T19:11:37.702Z,69.40
2019-01-14T19:14:07.847Z,68.50
2019-01-14T19:16:37.876Z,68.80
2019-01-14T19:19:08.854Z,69.30
2019-01-14T19:21:39.258Z,69.60
2019-01-14T19:24:09.262Z,69.50
2019-01-14T19:26:39.301Z,69.70
2019-01-14T19:29:09.293Z,69.30
2019-01-14T19:31:39.359Z,68.60
2019-01-14T19:34:09.420Z,69.20
2019-01-14T19:36:39.508Z,69.50
2019-01-14T19:39:10.457Z,69.50
2019-01-14T19:41:40.562Z,69.30
2019-01-14T19:44:10.902Z,69.30
2019-01-14T19:46:41.463Z,69.20
2019-01-14T19:49:11.555Z,68.90
2019-01-14T19:51:41.674Z,68.60
2019-01-14T19:54:11.722Z,69.10
2019-01-14T19:56:42.422Z,69.00
2019-01-14T19:59:12.448Z,69.30
2019-01-14T20:01:42.480Z,68.90
2019-01-14T20:04:12.520Z,69.00
2019-01-14T20:06:42.513Z,69.30
2019-01-14T20:09:12.614Z,68.90
2019-01-14T20:11:42.620Z,68.30
2019-01-14T20:14:13.083Z,68.60
2019-01-14T20:16:43.065Z,68.80
2019-01-14T20:19:13.100Z,68.90
2019-01-14T20:21:43.098Z,69.00
2019-01-14T20:24:13.124Z,69.10
2019-01-14T20:26:43.208Z,69.00
2019-01-14T20:29:13.282Z,69.00
2019-01-14T20:31:43.278Z,69.10
2019-01-14T20:34:13.330Z,68.50
2019-01-14T20:36:43.431Z,69.10
2019-01-14T20:39:13.648Z,69.60
2019-01-14T20:41:43.668Z,69.20
2019-01-14T20:44:13.753Z,69.00
2019-01-14T20:46:43.855Z,68.70
2019-01-14T20:49:13.921Z,69.10
2019-01-14T20:51:43.952Z,69.20
2019-01-14T20:54:14.060Z,68.70
2019-01-14T20:56:44.380Z,68.90
2019-01-14T20:59:14.420Z,68.90
2019-01-14T21:01:45.075Z,68.80
2019-01-14T21:04:15.557Z,69.00
2019-01-14T21:06:45.731Z,68.60
2019-01-14T21:09:15.817Z,68.80
2019-01-14T21:11:45.800Z,68.70
2019-01-14T21:14:16.423Z,68.70
2019-01-14T21:16:46.408Z,68.70
2019-01-14T21:19:16.788Z,68.80
2019-01-14T21:21:46.789Z,68.90
2019-01-14T21:24:17.139Z,69.00
2019-01-14T21:26:47.153Z,69.80
2019-01-14T21:29:17.160Z,69.10
2019-01-14T21:31:47.558Z,71.10
2019-01-14T21:34:17.592Z,70.40
2019-01-14T21:36:47.567Z,69.40
2019-01-14T21:39:17.522Z,69.70
2019-01-14T21:41:47.530Z,68.90
2019-01-14T21:44:17.499Z,68.40
2019-01-14T21:46:47.502Z,68.40
2019-01-14T21:49:17.496Z,68.80
2019-01-14T21:51:47.477Z,68.70
2019-01-14T21:54:17.554Z,68.60
2019-01-14T21:56:47.563Z,68.50
2019-01-14T21:59:17.534Z,68.40
2019-01-14T22:01:47.608Z,68.60
2019-01-14T22:04:17.514Z,68.10
2019-01-14T22:06:47.885Z,67.90
2019-01-14T22:09:17.855Z,68.10
2019-01-14T22:11:47.859Z,68.20
2019-01-14T22:14:17.852Z,68.40
2019-01-14T22:16:47.830Z,68.40
2019-01-14T22:19:17.824Z,68.60
2019-01-14T22:21:48.705Z,68.50
2019-01-14T22:24:18.675Z,68.50
2019-01-14T22:26:48.757Z,68.40
2019-01-14T22:29:18.724Z,68.30
2019-01-14T22:31:48.720Z,68.50
2019-01-14T22:34:18.713Z,68.30
2019-01-14T22:36:48.838Z,68.00
2019-01-14T22:39:18.819Z,68.10
2019-01-14T22:41:48.806Z,67.80
2019-01-14T22:44:18.820Z,67.60
2019-01-14T22:46:48.842Z,67.70
2019-01-14T22:49:18.823Z,68.30
2019-01-14T22:51:50.369Z,68.00
2019-01-14T22:54:20.583Z,68.10
2019-01-14T22:56:50.711Z,68.10
2019-01-14T22:59:20.721Z,68.40
2019-01-14T23:01:51.979Z,67.70
2019-01-14T23:04:22.050Z,68.10
2019-01-14T23:06:53.523Z,68.30
2019-01-14T23:09:23.602Z,68.10
2019-01-14T23:11:53.596Z,68.10
2019-01-14T23:14:23.598Z,67.90
2019-01-14T23:16:54.591Z,68.10
2019-01-14T23:19:24.593Z,67.30
2019-01-14T23:21:54.597Z,67.20
2019-01-14T23:24:24.584Z,67.10
2019-01-14T23:26:54.627Z,67.20
2019-01-14T23:29:24.621Z,67.40
2019-01-14T23:31:56.370Z,67.30
2019-01-14T23:34:26.367Z,66.90
2019-01-14T23:36:56.381Z,66.90
2019-01-14T23:39:26.374Z,66.80
2019-01-14T23:42:00.340Z,66.90
2019-01-14T23:44:28.799Z,66.50
2019-01-14T23:46:59.221Z,66.90
2019-01-14T23:49:29.220Z,67.20
2019-01-14T23:51:59.253Z,66.80
2019-01-14T23:54:36.761Z,65.90
2019-01-14T23:57:01.733Z,65.60
2019-01-14T23:59:32.081Z,65.80
